Time;durP1;ratioP1;P1;durP2;ratioP2;P2;SDS_P1;SDS_P2;PMS_P1;PMS_P2;Temp;Humidity;BMP_temperature;BMP_pressure;BME280_temperature;BME280_humidity;BME280_pressure;Samples;Min_cycle;Max_cycle;Signal;HPM_P1;HPM_P2
2023/10/23 00:01:35;;;;;;;7.55;5.30;;;;;;;9.10;100.00;101146.88;5015603;28;20065;-72
2023/10/23 00:04:02;;;;;;;7.15;5.30;;;;;;;9.06;100.00;101150.44;5014573;28;20050;-71
2023/10/23 00:06:30;;;;;;;8.38;5.15;;;;;;;9.02;100.00;101147.00;5019610;28;20045;-72
2023/10/23 00:08:58;;;;;;;10.20;5.47;;;;;;;8.99;100.00;101147.94;5014758;28;20528;-72
2023/10/23 00:11:28;;;;;;;6.85;5.30;;;;;;;8.95;100.00;101148.03;5020997;28;20041;-72
2023/10/23 00:13:55;;;;;;;8.60;5.70;;;;;;;8.91;100.00;101147.19;5011023;28;20124;-72
2023/10/23 00:16:23;;;;;;;9.93;5.85;;;;;;;8.85;100.00;101155.19;5023464;28;20042;-72
2023/10/23 00:18:51;;;;;;;9.20;5.35;;;;;;;8.83;100.00;101152.59;5021312;28;20129;-72
2023/10/23 00:21:18;;;;;;;5.72;5.13;;;;;;;8.80;100.00;101150.03;5005862;28;20057;-72
2023/10/23 00:23:45;;;;;;;10.20;5.55;;;;;;;8.79;100.00;101156.19;5018362;28;20135;-72
2023/10/23 00:26:12;;;;;;;6.18;5.13;;;;;;;8.77;100.00;101152.69;5019914;28;20115;-72
2023/10/23 00:28:47;;;;;;;9.40;5.65;;;;;;;8.72;100.00;101154.56;5008362;28;20054;-71
2023/10/23 00:31:15;;;;;;;12.52;5.60;;;;;;;8.69;100.00;101147.59;5007891;28;20046;-71
2023/10/23 00:33:42;;;;;;;10.77;5.97;;;;;;;8.65;100.00;101156.41;5023346;28;20053;-71
2023/10/23 00:36:09;;;;;;;8.50;6.43;;;;;;;8.62;100.00;101145.09;5029012;28;20117;-71
2023/10/23 00:38:36;;;;;;;9.18;6.10;;;;;;;8.58;100.00;101146.03;5015925;28;20060;-71
2023/10/23 00:41:03;;;;;;;8.10;5.65;;;;;;;8.55;100.00;101150.44;5026645;28;20038;-71
2023/10/23 00:43:30;;;;;;;6.85;5.57;;;;;;;8.53;100.00;101152.25;5015386;28;20100;-71
2023/10/23 00:46:01;;;;;;;11.57;6.30;;;;;;;8.52;100.00;101161.03;5006463;28;20505;-71
2023/10/23 00:48:28;;;;;;;8.40;5.75;;;;;;;8.52;100.00;101152.25;5008107;28;20506;-72
2023/10/23 00:51:02;;;;;;;9.82;5.75;;;;;;;8.48;100.00;101148.81;5016278;28;20052;-72
2023/10/23 00:53:37;;;;;;;8.32;5.82;;;;;;;8.47;100.00;101156.69;5032382;28;20044;-72
2023/10/23 00:56:06;;;;;;;11.43;6.28;;;;;;;8.42;100.00;101148.91;5042414;28;20042;-71
2023/10/23 00:58:39;;;;;;;8.48;5.65;;;;;;;8.40;100.00;101155.94;5008644;28;20053;-71
2023/10/23 01:01:12;;;;;;;8.05;5.70;;;;;;;8.36;100.00;101155.13;5019936;28;20045;-71
2023/10/23 01:03:41;;;;;;;8.77;6.15;;;;;;;8.32;100.00;101160.44;5010349;28;20042;-72
2023/10/23 01:06:09;;;;;;;7.60;5.75;;;;;;;8.29;100.00;101158.72;5024520;28;20057;-72
2023/10/23 01:08:37;;;;;;;7.00;5.50;;;;;;;8.25;100.00;101151.78;5020151;28;20643;-72
2023/10/23 01:11:05;;;;;;;9.20;5.80;;;;;;;8.22;100.00;101155.34;5019077;28;20505;-72
2023/10/23 01:13:32;;;;;;;9.13;5.95;;;;;;;8.20;100.00;101158.84;5025888;28;20046;-72
2023/10/23 01:15:59;;;;;;;10.30;5.90;;;;;;;8.16;100.00;101158.03;5039211;28;20084;-71
2023/10/23 01:18:27;;;;;;;7.35;5.55;;;;;;;8.14;100.00;101158.97;5014743;28;20391;-71
2023/10/23 01:20:54;;;;;;;8.77;6.15;;;;;;;8.14;100.00;101166.84;5021511;28;20568;-71
2023/10/23 01:23:27;;;;;;;8.27;5.68;;;;;;;8.13;100.00;101165.09;5019332;28;20521;-72
2023/10/23 01:25:55;;;;;;;10.07;6.18;;;;;;;8.11;100.00;101169.50;5014788;28;20045;-71
2023/10/23 01:28:22;;;;;;;9.32;6.20;;;;;;;8.07;100.00;101180.06;5021382;28;20790;-71
2023/10/23 01:30:49;;;;;;;7.65;6.20;;;;;;;8.07;100.00;101182.69;5019065;28;20037;-71
2023/10/23 01:33:16;;;;;;;9.40;6.35;;;;;;;8.07;100.00;101189.69;5017472;28;20132;-72
2023/10/23 01:35:43;;;;;;;9.35;6.53;;;;;;;8.05;100.00;101192.34;5020975;28;20065;-71
2023/10/23 01:38:15;;;;;;;7.13;6.10;;;;;;;8.06;100.00;101186.22;5055037;28;20141;-71
2023/10/23 01:40:42;;;;;;;9.80;5.88;;;;;;;8.07;100.00;101187.94;5036975;28;20041;-71
2023/10/23 01:43:09;;;;;;;8.82;5.93;;;;;;;8.08;100.00;101187.06;5016201;28;20073;-70
2023/10/23 01:45:36;;;;;;;9.20;5.50;;;;;;;8.06;100.00;101190.56;5017955;28;20072;-70
2023/10/23 01:48:04;;;;;;;7.90;5.45;;;;;;;8.05;100.00;101188.84;5020566;28;20088;-70
2023/10/23 01:50:31;;;;;;;8.98;6.20;;;;;;;8.04;100.00;101190.63;5043545;28;20140;-70
2023/10/23 01:52:58;;;;;;;11.60;6.85;;;;;;;8.04;100.00;101181.84;5013012;28;20077;-71
2023/10/23 01:55:26;;;;;;;15.93;9.02;;;;;;;8.04;100.00;101184.47;5007905;28;20111;-72
2023/10/23 01:57:57;;;;;;;16.67;9.10;;;;;;;8.05;100.00;101188.84;5026883;28;20046;-72
2023/10/23 02:00:25;;;;;;;12.25;7.88;;;;;;;8.07;100.00;101179.19;5024469;28;20416;-71
2023/10/23 02:02:54;;;;;;;10.32;7.53;;;;;;;8.08;100.00;101175.69;5027228;28;20104;-71
2023/10/23 02:05:21;;;;;;;11.15;7.70;;;;;;;8.09;100.00;101186.16;5018569;28;20096;-72
2023/10/23 02:07:48;;;;;;;12.63;8.13;;;;;;;8.09;100.00;101188.78;5039424;28;20148;-72
2023/10/23 02:10:15;;;;;;;12.80;9.30;;;;;;;8.12;100.00;101189.63;5026199;28;20405;-71
2023/10/23 02:12:42;;;;;;;13.32;8.57;;;;;;;8.13;100.00;101183.47;5036679;28;20661;-71
2023/10/23 02:15:10;;;;;;;12.25;7.50;;;;;;;8.15;100.00;101181.72;5038298;28;20065;-71
2023/10/23 02:17:38;;;;;;;11.40;7.22;;;;;;;8.12;100.00;101177.38;5035583;28;20524;-72
2023/10/23 02:20:06;;;;;;;14.07;7.15;;;;;;;8.09;100.00;101175.66;5019654;28;20688;-70
2023/10/23 02:22:33;;;;;;;11.10;6.70;;;;;;;8.04;100.00;101181.84;4998644;28;20038;-70
2023/10/23 02:25:00;;;;;;;9.13;6.22;;;;;;;7.98;100.00;101179.31;5006051;28;20046;-72
2023/10/23 02:27:28;;;;;;;11.98;6.57;;;;;;;7.91;100.00;101181.16;5024692;28;20057;-69
2023/10/23 02:29:55;;;;;;;16.92;6.95;;;;;;;7.85;100.00;101190.00;5007708;28;20042;-71
2023/10/23 02:32:22;;;;;;;9.00;6.03;;;;;;;7.77;100.00;101195.38;5005883;28;20050;-69
2023/10/23 02:34:50;;;;;;;13.20;6.40;;;;;;;7.74;100.00;101187.50;5007483;28;20053;-70
2023/10/23 02:37:17;;;;;;;9.70;6.03;;;;;;;7.72;100.00;101198.94;5023379;28;20045;-69
2023/10/23 02:39:44;;;;;;;9.55;6.30;;;;;;;7.68;100.00;101197.22;5020418;28;20772;-69
2023/10/23 02:42:11;;;;;;;10.18;5.95;;;;;;;7.65;100.00;101194.63;5031718;28;20048;-70
2023/10/23 02:44:39;;;;;;;10.00;5.93;;;;;;;7.60;100.00;101198.19;5012089;28;20044;-70
2023/10/23 02:47:05;;;;;;;11.35;5.72;;;;;;;7.56;100.00;101200.88;5005252;28;20072;-70
2023/10/23 02:49:32;;;;;;;11.52;6.13;;;;;;;7.51;100.00;101202.66;5020798;28;20495;-70
2023/10/23 02:51:59;;;;;;;7.88;5.53;;;;;;;7.46;100.00;101208.84;5017643;28;20068;-70
2023/10/23 02:54:27;;;;;;;15.20;6.20;;;;;;;7.43;100.00;101201.00;5012192;28;20127;-70
2023/10/23 02:56:54;;;;;;;12.77;6.05;;;;;;;7.41;100.00;101212.41;5024722;28;20755;-71
2023/10/23 02:59:21;;;;;;;12.70;6.30;;;;;;;7.35;100.00;101210.72;5024344;28;20128;-71
2023/10/23 03:01:48;;;;;;;13.35;7.38;;;;;;;7.28;100.00;101215.16;5021336;28;20042;-72
2023/10/23 03:04:16;;;;;;;9.30;5.80;;;;;;;7.22;100.00;101210.00;5008829;28;20600;-72
2023/10/23 03:06:43;;;;;;;7.90;6.47;;;;;;;7.20;100.00;101219.63;5024328;28;20034;-72
2023/10/23 03:09:11;;;;;;;10.55;6.65;;;;;;;7.15;100.00;101214.44;5005544;28;20041;-72
2023/10/23 03:11:39;;;;;;;11.38;6.93;;;;;;;7.09;100.00;101219.72;5018311;28;20053;-72
2023/10/23 03:14:08;;;;;;;17.85;6.63;;;;;;;7.06;100.00;101226.75;5010926;28;20057;-72
2023/10/23 03:16:35;;;;;;;12.13;7.18;;;;;;;7.03;100.00;101227.66;5028473;28;20045;-72
2023/10/23 03:19:02;;;;;;;13.57;7.55;;;;;;;7.02;100.00;101231.16;5025956;28;20092;-72
2023/10/23 03:21:29;;;;;;;10.77;7.78;;;;;;;6.98;100.00;101229.44;5010409;28;20044;-72
2023/10/23 03:23:57;;;;;;;10.27;7.45;;;;;;;6.94;100.00;101225.97;5004151;28;20450;-71
2023/10/23 03:26:24;;;;;;;16.50;7.10;;;;;;;6.91;100.00;101225.13;5019553;28;20133;-72
2023/10/23 03:28:51;;;;;;;13.15;7.70;;;;;;;6.88;100.00;101228.66;5022968;28;20057;-72
2023/10/23 03:31:18;;;;;;;11.68;6.70;;;;;;;6.82;100.00;101215.59;5008713;28;20059;-72
2023/10/23 03:33:46;;;;;;;10.38;7.22;;;;;;;6.78;100.00;101217.38;5025260;28;20049;-72
2023/10/23 03:36:13;;;;;;;11.07;7.32;;;;;;;6.74;100.00;101217.41;5040138;28;20417;-72
2023/10/23 03:38:40;;;;;;;14.35;8.13;;;;;;;6.73;100.00;101216.56;5021629;28;20076;-72
2023/10/23 03:41:07;;;;;;;14.95;7.38;;;;;;;6.68;100.00;101211.34;5004148;28;20506;-71
2023/10/23 03:43:34;;;;;;;11.15;7.55;;;;;;;6.67;100.00;101213.97;5027261;28;20045;-71
2023/10/23 03:46:03;;;;;;;13.15;7.15;;;;;;;6.64;100.00;101221.88;5010076;28;20392;-71
2023/10/23 03:48:35;;;;;;;11.63;6.55;;;;;;;6.59;100.00;101215.78;5006219;28;20053;-71
2023/10/23 03:51:03;;;;;;;11.88;7.38;;;;;;;6.56;100.00;101227.16;5046436;28;20049;-71
2023/10/23 03:53:30;;;;;;;10.30;7.13;;;;;;;6.53;100.00;101217.59;5026909;28;20132;-71
2023/10/23 03:55:57;;;;;;;14.85;7.45;;;;;;;6.49;100.00;101218.47;5031109;28;20052;-71
2023/10/23 03:58:24;;;;;;;19.10;7.93;;;;;;;6.43;100.00;101221.16;5040668;28;20057;-71
2023/10/23 04:00:53;;;;;;;47.90;9.50;;;;;;;6.36;100.00;101217.69;5042941;28;20041;-71
2023/10/23 04:03:21;;;;;;;22.20;7.82;;;;;;;6.33;100.00;101222.09;5027214;28;20045;-71
2023/10/23 04:05:48;;;;;;;26.45;7.15;;;;;;;6.29;100.00;101223.88;5023211;28;20045;-71
2023/10/23 04:08:15;;;;;;;11.48;7.05;;;;;;;6.25;100.00;101226.50;5026193;28;20095;-71
2023/10/23 04:10:49;;;;;;;15.75;7.40;;;;;;;6.26;100.00;101238.72;5017706;28;20129;-71
2023/10/23 04:13:16;;;;;;;18.40;6.78;;;;;;;6.26;100.00;101228.25;5020611;28;20060;-71
2023/10/23 04:15:54;;;;;;;17.75;7.50;;;;;;;6.27;100.00;101229.97;5026986;28;20414;-71
2023/10/23 04:18:25;;;;;;;22.60;7.57;;;;;;;6.28;100.00;101227.38;5026633;28;20130;-73
2023/10/23 04:21:07;;;;;;;14.52;7.53;;;;;;;6.27;100.00;101224.72;5040969;28;20084;-72
2023/10/23 04:23:37;;;;;;;12.38;6.72;;;;;;;6.25;100.00;101221.28;5032446;28;20036;-71
2023/10/23 04:26:06;;;;;;;11.43;6.97;;;;;;;6.24;100.00;101227.38;5027057;28;20045;-71
2023/10/23 04:28:35;;;;;;;11.88;6.75;;;;;;;6.24;100.00;101227.38;5017476;28;20095;-71
2023/10/23 04:31:03;;;;;;;14.50;6.60;;;;;;;6.22;100.00;101225.66;5012326;28;20042;-72
2023/10/23 04:33:31;;;;;;;12.88;6.20;;;;;;;6.20;100.00;101224.78;5025987;28;20045;-71
2023/10/23 04:35:58;;;;;;;8.70;6.20;;;;;;;6.18;100.00;101228.28;5040201;28;20041;-76
2023/10/23 04:38:26;;;;;;;10.00;6.10;;;;;;;6.16;100.00;101238.75;5021464;28;20037;-72
2023/10/23 04:40:54;;;;;;;8.30;5.93;;;;;;;6.13;100.00;101233.56;5024361;28;20650;-72
2023/10/23 04:43:21;;;;;;;8.63;5.63;;;;;;;6.12;100.00;101237.06;5026874;28;20042;-72
2023/10/23 04:45:49;;;;;;;10.80;6.10;;;;;;;6.11;100.00;101240.53;5024806;28;20048;-73
2023/10/23 04:48:16;;;;;;;8.90;5.93;;;;;;;6.11;100.00;101237.94;5040166;28;20164;-72
2023/10/23 04:50:43;;;;;;;10.48;5.68;;;;;;;6.09;100.00;101237.06;5015339;28;20065;-73
2023/10/23 04:53:10;;;;;;;10.13;6.72;;;;;;;6.11;100.00;101232.69;5013481;28;20149;-72
2023/10/23 04:55:40;;;;;;;10.20;6.30;;;;;;;6.16;100.00;101237.91;5019130;28;20045;-71
2023/10/23 04:58:10;;;;;;;9.25;6.28;;;;;;;6.22;100.00;101235.22;5022666;28;20132;-72
2023/10/23 05:00:38;;;;;;;10.32;5.95;;;;;;;6.22;100.00;101236.13;5026846;28;20810;-72
2023/10/23 05:03:06;;;;;;;11.73;7.00;;;;;;;6.26;100.00;101230.88;5013684;28;20037;-72
2023/10/23 05:05:35;;;;;;;18.10;7.18;;;;;;;6.31;100.00;101227.31;5035360;28;20128;-73
2023/10/23 05:08:06;;;;;;;16.00;7.07;;;;;;;6.34;100.00;101222.06;5022134;28;20053;-73
2023/10/23 05:10:33;;;;;;;9.35;6.05;;;;;;;6.31;100.00;101224.69;5025798;28;20125;-74
2023/10/23 05:13:02;;;;;;;9.20;5.95;;;;;;;6.25;100.00;101227.38;5020062;28;20529;-73
2023/10/23 05:15:31;;;;;;;9.73;6.03;;;;;;;6.23;100.00;101234.34;5031742;28;20071;-73
2023/10/23 05:17:58;;;;;;;9.60;6.35;;;;;;;6.20;100.00;101231.78;5018672;28;20042;-72
2023/10/23 05:20:25;;;;;;;8.80;5.95;;;;;;;6.18;100.00;101231.78;5027092;28;20088;-73
2023/10/23 05:22:52;;;;;;;7.20;5.57;;;;;;;6.17;100.00;101234.41;5019773;28;20038;-72
2023/10/23 05:25:19;;;;;;;11.13;6.90;;;;;;;6.19;100.00;101235.28;5023419;28;20049;-72
2023/10/23 05:27:46;;;;;;;18.52;6.32;;;;;;;6.20;100.00;101234.41;5026522;28;20144;-72
2023/10/23 05:30:13;;;;;;;24.70;7.50;;;;;;;6.24;100.00;101236.09;5024580;28;20415;-73
2023/10/23 05:32:41;;;;;;;14.57;6.38;;;;;;;6.22;100.00;101228.25;5045747;28;20034;-72
2023/10/23 05:35:08;;;;;;;17.27;7.00;;;;;;;6.20;100.00;101224.78;5024554;28;20045;-73
2023/10/23 05:37:35;;;;;;;11.50;6.50;;;;;;;6.22;100.00;101237.84;5021816;28;20128;-73
2023/10/23 05:40:04;;;;;;;12.50;6.75;;;;;;;6.23;100.00;101234.34;5019804;28;20056;-73
2023/10/23 05:42:32;;;;;;;33.00;7.57;;;;;;;6.29;100.00;101244.81;5024688;28;20667;-72
2023/10/23 05:45:02;;;;;;;15.20;8.18;;;;;;;6.29;100.00;101234.34;5054604;28;20072;-73
2023/10/23 05:47:30;;;;;;;17.63;7.85;;;;;;;6.32;100.00;101228.22;5023132;28;20504;-73
2023/10/23 05:49:57;;;;;;;27.92;8.63;;;;;;;6.36;100.00;101228.19;5018879;28;20065;-73
2023/10/23 05:52:24;;;;;;;33.78;9.18;;;;;;;6.41;100.00;101237.75;5020144;28;20030;-73
2023/10/23 05:54:51;;;;;;;56.47;11.55;;;;;;;6.45;100.00;101229.88;5015274;28;20056;-73
2023/10/23 05:57:18;;;;;;;38.08;9.80;;;;;;;6.47;100.00;101224.63;5017958;28;20045;-73
2023/10/23 05:59:45;;;;;;;25.75;9.48;;;;;;;6.52;100.00;101230.66;5016524;28;20060;-72
2023/10/23 06:02:12;;;;;;;38.58;9.52;;;;;;;6.54;100.00;101239.41;5018518;28;20214;-72
2023/10/23 06:04:42;;;;;;;53.58;10.15;;;;;;;6.57;100.00;101233.25;5025191;28;20053;-72
2023/10/23 06:07:10;;;;;;;40.15;11.15;;;;;;;6.60;100.00;101241.09;5020064;28;20042;-72
2023/10/23 06:09:37;;;;;;;19.23;9.32;;;;;;;6.60;100.00;101244.63;5023004;28;20080;-72
2023/10/23 06:12:06;;;;;;;61.03;12.95;;;;;;;6.63;100.00;101244.56;5030562;28;20037;-73
2023/10/23 06:14:33;;;;;;;33.55;10.25;;;;;;;6.62;100.00;101244.59;5020968;28;20053;-72
2023/10/23 06:17:00;;;;;;;27.33;9.43;;;;;;;6.62;100.00;101245.44;5029885;28;20060;-72
2023/10/23 06:19:31;;;;;;;19.05;8.98;;;;;;;6.60;100.00;101243.72;5024757;28;20042;-72
2023/10/23 06:21:59;;;;;;;17.38;9.35;;;;;;;6.60;100.00;101242.00;5022175;28;20048;-73
2023/10/23 06:24:27;;;;;;;12.63;8.27;;;;;;;6.60;100.00;101243.72;5023369;28;20042;-72
2023/10/23 06:26:54;;;;;;;13.40;8.27;;;;;;;6.57;100.00;101242.00;5023050;28;20052;-72
2023/10/23 06:29:21;;;;;;;8.88;7.88;;;;;;;6.60;100.00;101248.97;5057513;28;20041;-72
2023/10/23 06:31:48;;;;;;;11.38;8.07;;;;;;;6.60;100.00;101249.84;5026227;28;20570;-72
2023/10/23 06:34:15;;;;;;;14.85;8.70;;;;;;;6.61;100.00;101248.09;5026816;28;20518;-72
2023/10/23 06:36:43;;;;;;;10.35;7.85;;;;;;;6.62;100.00;101239.34;5008142;28;20045;-72
2023/10/23 06:39:12;;;;;;;11.98;8.30;;;;;;;6.61;100.00;101229.75;5020077;28;20037;-73
2023/10/23 06:41:39;;;;;;;12.60;8.50;;;;;;;6.64;100.00;101235.81;5040334;28;20034;-72
2023/10/23 06:44:07;;;;;;;15.43;9.18;;;;;;;6.64;100.00;101238.44;5023339;28;20147;-73
2023/10/23 06:46:34;;;;;;;12.35;8.55;;;;;;;6.68;100.00;101239.28;5051864;28;20473;-72
2023/10/23 06:49:01;;;;;;;13.52;8.43;;;;;;;6.68;100.00;101234.94;5044411;28;20052;-72
2023/10/23 06:51:28;;;;;;;10.70;8.50;;;;;;;6.71;100.00;101241.03;5033939;28;20287;-72
2023/10/23 06:53:55;;;;;;;13.48;8.57;;;;;;;6.72;100.00;101241.03;5025230;28;20099;-73
2023/10/23 06:56:22;;;;;;;11.75;8.10;;;;;;;6.74;100.00;101248.84;5021048;28;20165;-72
2023/10/23 06:58:49;;;;;;;11.98;7.93;;;;;;;6.76;100.00;101247.09;5028952;28;20568;-72
2023/10/23 07:01:16;;;;;;;10.95;8.00;;;;;;;6.79;100.00;101247.09;5024384;28;20100;-72
2023/10/23 07:03:56;;;;;;;12.98;7.80;;;;;;;6.84;100.00;101251.41;5025599;28;20114;-72
2023/10/23 07:06:23;;;;;;;11.02;7.40;;;;;;;6.90;100.00;101246.97;5024402;28;20501;-72
2023/10/23 07:08:50;;;;;;;11.30;7.82;;;;;;;6.94;100.00;101249.56;5025523;28;20493;-72
2023/10/23 07:11:22;;;;;;;11.77;8.07;;;;;;;7.02;100.00;101249.50;5024882;28;20060;-72
2023/10/23 07:13:49;;;;;;;10.40;7.53;;;;;;;7.06;100.00;101252.97;5037014;28;20068;-72
2023/10/23 07:16:16;;;;;;;16.75;8.45;;;;;;;7.12;100.00;101245.91;5011111;28;20164;-72
2023/10/23 07:18:43;;;;;;;21.02;8.60;;;;;;;7.17;100.00;101237.16;5057308;28;20041;-72
2023/10/23 07:21:10;;;;;;;15.80;8.23;;;;;;;7.25;100.00;101237.94;5023364;28;20076;-72
2023/10/23 07:23:40;;;;;;;17.35;8.05;;;;;;;7.30;100.00;101242.25;5022271;28;20052;-72
2023/10/23 07:26:14;;;;;;;20.33;8.88;;;;;;;7.34;100.00;101243.09;5018595;28;20422;-72
2023/10/23 07:28:42;;;;;;;;;;;;;;;7.37;100.00;101247.41;5028215;28;20497;-72
2023/10/23 07:31:10;;;;;;;12.35;8.15;;;;;;;7.42;100.00;101241.25;5022947;28;20471;-72
2023/10/23 07:33:38;;;;;;;10.90;7.90;;;;;;;7.52;100.00;101241.13;5025774;28;20697;-72
2023/10/23 07:36:07;;;;;;;12.85;8.05;;;;;;;7.60;100.00;101241.91;5028365;28;20052;-72
2023/10/23 07:38:40;;;;;;;12.73;7.75;;;;;;;7.69;100.00;101246.19;5009271;28;20038;-72
2023/10/23 07:41:09;;;;;;;15.68;7.50;;;;;;;7.73;100.00;101238.28;5022133;28;20056;-72
2023/10/23 07:43:36;;;;;;;12.23;7.40;;;;;;;7.81;100.00;101237.28;5031302;28;20048;-72
2023/10/23 07:46:10;;;;;;;12.35;7.50;;;;;;;7.86;100.00;101233.72;5027222;28;20150;-72
2023/10/23 07:48:45;;;;;;;14.13;7.38;;;;;;;7.92;100.00;101238.03;5027221;28;20057;-72
2023/10/23 07:51:13;;;;;;;10.77;7.28;;;;;;;7.98;100.00;101239.72;5035100;28;20100;-73
2023/10/23 07:53:41;;;;;;;10.65;7.45;;;;;;;8.03;100.00;101237.91;5041047;28;20129;-72
2023/10/23 07:56:09;;;;;;;11.50;8.25;;;;;;;8.07;100.00;101244.84;5019562;28;20133;-72
2023/10/23 07:58:36;;;;;;;10.52;8.60;;;;;;;8.14;100.00;101246.47;5010721;28;20131;-72
2023/10/23 08:01:10;;;;;;;11.70;7.80;;;;;;;8.20;100.00;101248.16;5008856;28;20048;-72
2023/10/23 08:03:38;;;;;;;;;;;;;;;8.27;100.00;101247.19;5023773;28;20088;-72
2023/10/23 08:06:08;;;;;;;11.27;8.50;;;;;;;8.34;100.00;101246.22;5025284;28;19971;-72
2023/10/23 08:08:38;;;;;;;12.95;8.77;;;;;;;8.44;100.00;101244.34;5012836;28;20042;-72
2023/10/23 08:11:08;;;;;;;12.35;8.50;;;;;;;8.53;100.00;101245.97;5026189;28;20414;-72
2023/10/23 08:13:36;;;;;;;12.35;9.30;;;;;;;8.60;100.00;101241.50;5046770;28;20045;-72
2023/10/23 08:16:04;;;;;;;15.27;9.75;;;;;;;8.64;100.00;101248.44;5046989;28;20045;-72
2023/10/23 08:18:34;;;;;;;14.85;9.20;;;;;;;8.72;100.00;101233.41;5046939;28;20409;-72
2023/10/23 08:21:15;;;;;;;14.10;9.05;;;;;;;8.81;100.00;101228.00;5047690;28;20047;-72
2023/10/23 08:23:54;;;;;;;11.63;8.27;;;;;;;8.84;100.00;101230.59;5040067;28;20096;-72
2023/10/23 08:26:21;;;;;;;12.00;8.95;;;;;;;8.89;100.00;101227.88;5026525;28;20072;-72
2023/10/23 08:28:49;;;;;;;13.20;8.38;;;;;;;8.94;100.00;101218.13;5027549;28;20073;-72
2023/10/23 08:31:19;;;;;;;18.13;7.68;;;;;;;8.99;100.00;101225.94;5027202;28;20037;-72
2023/10/23 08:34:00;;;;;;;12.77;8.82;;;;;;;9.10;100.00;101220.50;5026816;28;20120;-72
2023/10/23 08:36:28;;;;;;;12.48;8.77;;;;;;;9.17;100.00;101222.13;5026999;28;20118;-72
2023/10/23 08:38:55;;;;;;;15.45;9.27;;;;;;;9.29;100.00;101223.66;5027391;28;20049;-72
2023/10/23 08:41:22;;;;;;;13.35;8.88;;;;;;;9.43;100.00;101226.00;5026971;28;20125;-72
2023/10/23 08:43:49;;;;;;;13.57;8.93;;;;;;;9.56;100.00;101224.03;5007693;28;20117;-72
2023/10/23 08:46:16;;;;;;;14.70;9.02;;;;;;;9.68;100.00;101217.66;5007233;28;20061;-72
2023/10/23 08:48:44;;;;;;;14.73;8.68;;;;;;;9.82;100.00;101212.09;5013663;28;20038;-72
2023/10/23 08:51:13;;;;;;;15.55;7.82;;;;;;;9.95;100.00;101216.19;5021224;28;20107;-72
2023/10/23 08:53:55;;;;;;;12.13;7.50;;;;;;;10.08;100.00;101222.06;5026795;28;20434;-72
2023/10/23 08:56:41;;;;;;;12.10;7.45;;;;;;;10.24;100.00;101220.81;5013471;28;20048;-72
2023/10/23 08:59:10;;;;;;;14.75;7.10;;;;;;;10.37;100.00;101226.72;5027434;28;20057;-72
2023/10/23 09:01:37;;;;;;;14.40;7.28;;;;;;;10.52;100.00;101224.59;5017035;28;20327;-72
2023/10/23 09:04:06;;;;;;;12.55;7.30;;;;;;;10.68;100.00;101230.38;5026201;28;20140;-72
2023/10/23 09:06:37;;;;;;;10.93;6.53;;;;;;;10.84;100.00;101233.50;5028489;28;20034;-72
2023/10/23 09:09:05;;;;;;;13.13;6.70;;;;;;;11.01;100.00;101228.66;5026235;28;20053;-72
2023/10/23 09:11:44;;;;;;;13.90;6.50;;;;;;;11.14;100.00;101229.19;5026645;28;20132;-72
2023/10/23 09:14:25;;;;;;;11.73;5.88;;;;;;;11.30;100.00;101224.34;5024730;28;20150;-72
2023/10/23 09:16:55;;;;;;;11.55;5.07;;;;;;;11.44;100.00;101217.84;5023197;28;20053;-72
2023/10/23 09:19:25;;;;;;;10.35;5.10;;;;;;;11.53;100.00;101224.66;5022663;28;20266;-73
2023/10/23 09:21:55;;;;;;;8.65;5.10;;;;;;;11.62;100.00;101211.19;5006792;28;20046;-72
2023/10/23 09:24:23;;;;;;;10.90;5.38;;;;;;;11.78;100.00;101209.81;5042628;28;20056;-73
2023/10/23 09:26:51;;;;;;;10.88;5.40;;;;;;;11.92;100.00;101214.69;5007105;28;20070;-73
2023/10/23 09:29:29;;;;;;;10.18;4.90;;;;;;;12.02;100.00;101215.31;5039542;28;20052;-73
2023/10/23 09:32:00;;;;;;;14.23;5.20;;;;;;;12.14;100.00;101216.72;5017325;28;20056;-73
2023/10/23 09:34:31;;;;;;;7.03;4.38;;;;;;;12.24;100.00;101209.38;5006250;28;20050;-74
2023/10/23 09:36:59;;;;;;;11.40;4.28;;;;;;;12.32;100.00;101209.13;5022113;28;20072;-73
2023/10/23 09:39:26;;;;;;;11.55;4.05;;;;;;;12.40;100.00;101209.75;5015142;28;20049;-73
2023/10/23 09:41:53;;;;;;;10.82;3.97;;;;;;;12.48;100.00;101213.00;5029666;28;20482;-74
2023/10/23 09:44:24;;;;;;;10.23;3.60;;;;;;;12.58;100.00;101206.50;5024690;28;20128;-74
2023/10/23 09:46:53;;;;;;;11.23;4.00;;;;;;;12.66;100.00;101208.03;5024170;28;20437;-74
2023/10/23 09:49:22;;;;;;;10.15;3.55;;;;;;;12.74;100.00;101201.56;5025344;28;20053;-74
2023/10/23 09:51:52;;;;;;;8.25;3.70;;;;;;;12.85;100.00;101195.91;5017180;28;20631;-73
2023/10/23 09:54:20;;;;;;;9.73;3.75;;;;;;;12.92;100.00;101201.00;5031337;28;20038;-73
2023/10/23 09:56:53;;;;;;;10.65;3.45;;;;;;;13.00;100.00;101196.31;5006160;28;20058;-73
2023/10/23 09:59:29;;;;;;;8.52;4.22;;;;;;;13.04;100.00;101195.25;5017196;28;20415;-72
2023/10/23 10:02:07;;;;;;;10.40;3.90;;;;;;;13.08;100.00;101190.72;5005382;28;20050;-73
2023/10/23 10:04:56;;;;;;;10.90;4.20;;;;;;;13.11;100.00;101188.88;5041000;28;20421;-72
2023/10/23 10:07:41;;;;;;;9.35;3.67;;;;;;;13.15;100.00;101193.09;5024808;28;20072;-72
2023/10/23 10:10:10;;;;;;;10.27;3.70;;;;;;;13.23;100.00;101186.69;5022759;28;20441;-73
2023/10/23 10:12:39;;;;;;;11.57;3.90;;;;;;;13.27;100.00;101185.66;5023011;28;20099;-72
2023/10/23 10:15:09;;;;;;;9.85;4.10;;;;;;;13.28;100.00;101184.72;5021108;28;20045;-72
2023/10/23 10:17:39;;;;;;;7.38;3.60;;;;;;;13.27;99.47;101183.88;5012552;28;20564;-72
2023/10/23 10:20:11;;;;;;;9.43;4.07;;;;;;;13.23;100.00;101169.03;5020204;28;20160;-73
2023/10/23 10:22:41;;;;;;;11.00;4.13;;;;;;;13.29;99.62;101178.53;5023654;28;20695;-74
2023/10/23 10:25:11;;;;;;;12.07;5.07;;;;;;;13.29;99.81;101186.47;5019197;28;20049;-73
2023/10/23 10:27:39;;;;;;;11.38;4.78;;;;;;;13.34;100.00;101174.78;5023250;28;20037;-72
2023/10/23 10:30:42;;;;;;;12.32;5.70;;;;;;;13.41;99.76;101167.53;5021621;28;20046;-73
2023/10/23 10:33:20;;;;;;;14.73;6.22;;;;;;;13.44;98.90;101164.75;5028521;28;20413;-72
2023/10/23 10:36:10;;;;;;;11.00;6.10;;;;;;;13.49;100.00;101159.25;5016339;28;20076;-73
2023/10/23 10:38:38;;;;;;;10.30;4.97;;;;;;;13.59;99.34;101155.34;5015630;28;20099;-72
2023/10/23 10:41:17;;;;;;;12.55;4.97;;;;;;;13.62;97.92;101149.94;5025424;28;20073;-73
2023/10/23 10:43:52;;;;;;;12.05;4.60;;;;;;;13.67;98.28;101155.06;5028610;28;20072;-73
2023/10/23 10:46:22;;;;;;;10.73;5.13;;;;;;;13.73;99.07;101151.31;5025123;28;20053;-73
2023/10/23 10:48:54;;;;;;;11.07;4.82;;;;;;;13.84;99.04;101141.16;5009377;28;20061;-73
2023/10/23 10:51:25;;;;;;;9.25;4.47;;;;;;;13.90;97.42;101138.25;5025174;28;20069;-73
2023/10/23 10:54:03;;;;;;;10.35;4.30;;;;;;;13.92;96.76;101132.94;5013896;28;20124;-72
2023/10/23 10:56:31;;;;;;;10.60;4.68;;;;;;;13.94;96.34;101121.34;5022855;28;20044;-74
2023/10/23 10:59:03;;;;;;;8.07;4.25;;;;;;;13.96;96.14;101131.84;5025189;28;20048;-73
2023/10/23 11:01:31;;;;;;;11.45;4.32;;;;;;;13.97;95.54;101123.88;5029639;28;20134;-72
2023/10/23 11:04:00;;;;;;;12.82;4.75;;;;;;;14.00;95.09;101116.69;5040557;28;20388;-75
2023/10/23 11:06:29;;;;;;;8.60;4.82;;;;;;;14.01;95.94;101110.47;5016544;28;20322;-73
2023/10/23 11:08:57;;;;;;;10.90;4.35;;;;;;;14.08;95.46;101099.56;5028026;28;20042;-73
2023/10/23 11:11:26;;;;;;;9.48;3.85;;;;;;;14.14;93.67;101101.94;5016633;28;20440;-73
2023/10/23 11:13:54;;;;;;;10.00;4.38;;;;;;;14.18;92.43;101107.13;5019276;28;20572;-72
2023/10/23 11:16:22;;;;;;;10.00;4.25;;;;;;;14.19;92.56;101106.22;5023371;28;20041;-73
2023/10/23 11:18:51;;;;;;;10.32;4.75;;;;;;;14.19;93.83;101096.50;5023799;28;20409;-72
2023/10/23 11:21:23;;;;;;;7.18;4.50;;;;;;;14.24;94.86;101096.31;5044419;28;20037;-73
2023/10/23 11:23:55;;;;;;;9.15;4.18;;;;;;;14.34;94.71;101094.09;5022403;28;20116;-73
2023/10/23 11:26:22;;;;;;;10.68;4.78;;;;;;;14.41;92.42;101092.91;5028650;28;20614;-73
2023/10/23 11:28:49;;;;;;;10.73;4.75;;;;;;;14.39;92.22;101087.69;5030324;28;20137;-73